createdAt,value
2018-10-15T00:02:05.033Z,12.50
2018-10-15T00:04:33.451Z,11.97
2018-10-15T00:07:01.770Z,12.60
2018-10-15T00:09:30.040Z,12.47
2018-10-15T00:11:58.297Z,11.73
2018-10-15T00:14:27.034Z,11.73
2018-10-15T00:16:55.325Z,12.10
2018-10-15T00:19:23.597Z,11.80
2018-10-15T00:21:51.926Z,11.30
2018-10-15T00:24:20.214Z,11.17
2018-10-15T00:26:48.537Z,10.83
2018-10-15T00:29:16.834Z,11.27
2018-10-15T00:31:45.147Z,10.77
2018-10-15T00:34:14.106Z,11.43
2018-10-15T00:36:42.445Z,10.27
2018-10-15T00:39:10.759Z,11.70
2018-10-15T00:41:38.995Z,10.70
2018-10-15T00:44:07.310Z,11.40
2018-10-15T00:46:35.637Z,10.57
2018-10-15T00:49:03.887Z,10.40
2018-10-15T00:51:32.145Z,10.33
2018-10-15T00:54:00.377Z,11.70
2018-10-15T00:56:28.694Z,10.27
2018-10-15T00:58:56.956Z,10.53
2018-10-15T01:01:25.257Z,10.53
2018-10-15T01:03:53.594Z,9.53
2018-10-15T01:06:21.761Z,10.40
2018-10-15T01:08:50.007Z,10.90
2018-10-15T01:11:18.259Z,10.58
2018-10-15T01:13:46.926Z,10.50
2018-10-15T01:16:15.161Z,10.47
2018-10-15T01:18:43.649Z,10.50
2018-10-15T01:21:12.039Z,9.60
2018-10-15T01:23:40.354Z,10.03
2018-10-15T01:26:08.696Z,10.13
2018-10-15T01:28:36.963Z,9.20
2018-10-15T01:31:05.201Z,9.80
2018-10-15T01:33:33.564Z,10.50
2018-10-15T01:36:01.911Z,9.55
2018-10-15T01:38:30.215Z,9.93
2018-10-15T01:40:58.503Z,10.00
2018-10-15T01:43:26.810Z,9.77
2018-10-15T01:45:55.078Z,9.90
2018-10-15T01:48:23.373Z,9.87
2018-10-15T01:50:51.704Z,11.40
2018-10-15T01:53:20.009Z,9.63
2018-10-15T01:55:48.243Z,9.53
2018-10-15T01:58:16.501Z,10.60
2018-10-15T02:00:44.726Z,11.00
2018-10-15T02:03:13.000Z,10.43
2018-10-15T02:05:41.267Z,10.00
2018-10-15T02:08:09.506Z,10.20
2018-10-15T02:10:37.823Z,10.50
2018-10-15T02:13:06.058Z,9.77
2018-10-15T02:15:34.686Z,10.30
2018-10-15T02:18:03.019Z,10.15
2018-10-15T02:20:31.287Z,9.70
2018-10-15T02:22:59.583Z,9.90
2018-10-15T02:25:27.898Z,9.33
2018-10-15T02:27:56.301Z,9.80
2018-10-15T02:30:24.539Z,10.50
2018-10-15T02:32:52.747Z,10.63
2018-10-15T02:35:20.993Z,10.00
2018-10-15T02:37:49.264Z,10.75
2018-10-15T02:40:17.515Z,9.70
2018-10-15T02:42:45.847Z,9.68
2018-10-15T02:45:14.086Z,9.48
2018-10-15T02:47:42.382Z,9.60
2018-10-15T02:50:11.421Z,9.78
2018-10-15T02:52:40.279Z,9.10
2018-10-15T02:55:08.710Z,9.25
2018-10-15T02:57:37.362Z,9.23
2018-10-15T03:00:08.685Z,9.30
2018-10-15T03:02:37.015Z,9.25
2018-10-15T03:05:06.930Z,8.90
2018-10-15T03:07:35.233Z,8.50
2018-10-15T03:10:03.528Z,10.33
2018-10-15T03:12:32.049Z,9.05
2018-10-15T03:15:00.289Z,9.13
2018-10-15T03:17:28.265Z,8.80
2018-10-15T03:19:56.833Z,8.88
2018-10-15T03:22:25.042Z,9.27
2018-10-15T03:24:53.420Z,9.13
2018-10-15T03:27:21.647Z,9.08
2018-10-15T03:29:49.915Z,9.87
2018-10-15T03:32:17.912Z,9.48
2018-10-15T03:34:46.154Z,10.58
2018-10-15T03:37:14.524Z,9.18
2018-10-15T03:39:43.173Z,9.53
2018-10-15T03:42:11.486Z,9.78
2018-10-15T03:44:39.794Z,9.10
2018-10-15T03:47:07.876Z,9.58
2018-10-15T03:49:36.277Z,9.43
2018-10-15T03:52:04.540Z,9.95
2018-10-15T03:54:32.542Z,10.58
2018-10-15T03:57:00.897Z,9.65
2018-10-15T03:59:29.154Z,9.68
2018-10-15T04:01:57.414Z,10.85
2018-10-15T04:04:25.725Z,9.70
2018-10-15T04:06:54.042Z,10.40
2018-10-15T04:09:22.295Z,10.23
2018-10-15T04:11:50.538Z,9.18
2018-10-15T04:14:18.841Z,11.03
2018-10-15T04:16:47.107Z,10.23
2018-10-15T04:19:15.358Z,10.93
2018-10-15T04:21:43.606Z,10.32
2018-10-15T04:24:11.856Z,9.83
2018-10-15T04:26:40.123Z,9.90
2018-10-15T04:29:08.401Z,9.98
2018-10-15T04:31:36.648Z,10.00
2018-10-15T04:34:04.980Z,10.53
2018-10-15T04:36:33.277Z,10.28
2018-10-15T04:39:01.546Z,10.93
2018-10-15T04:41:29.617Z,10.90
2018-10-15T04:43:57.893Z,10.55
2018-10-15T04:46:26.186Z,8.93
2018-10-15T04:48:54.623Z,11.35
2018-10-15T04:51:22.930Z,10.45
2018-10-15T04:53:51.192Z,9.73
2018-10-15T04:56:19.511Z,11.18
2018-10-15T04:58:47.761Z,10.43
2018-10-15T05:01:15.789Z,11.10
2018-10-15T05:03:44.152Z,11.83
2018-10-15T05:06:12.444Z,11.05
2018-10-15T05:08:41.063Z,11.57
2018-10-15T05:11:09.360Z,11.45
2018-10-15T05:13:37.734Z,10.23
2018-10-15T05:16:05.757Z,11.15
2018-10-15T05:18:33.797Z,10.55
2018-10-15T05:21:02.125Z,11.40
2018-10-15T05:23:30.409Z,11.63
2018-10-15T05:25:58.710Z,10.43
2018-10-15T05:28:26.938Z,10.88
2018-10-15T05:30:55.284Z,10.48
2018-10-15T05:33:23.586Z,11.60
2018-10-15T05:35:51.893Z,11.80
2018-10-15T05:38:20.147Z,11.53
2018-10-15T05:40:48.449Z,11.43
2018-10-15T05:43:16.763Z,11.00
2018-10-15T05:45:44.985Z,10.90
2018-10-15T05:48:13.408Z,11.63
2018-10-15T05:50:41.726Z,11.40
2018-10-15T05:53:10.019Z,11.75
2018-10-15T05:55:38.443Z,10.43
2018-10-15T05:58:06.862Z,11.25
2018-10-15T06:00:35.210Z,11.38
2018-10-15T06:03:03.512Z,11.63
2018-10-15T06:05:31.524Z,10.95
2018-10-15T06:07:59.768Z,11.00
2018-10-15T06:10:27.902Z,11.90
2018-10-15T06:12:56.256Z,11.18
2018-10-15T06:15:25.685Z,11.63
2018-10-15T06:17:54.626Z,11.00
2018-10-15T06:20:22.889Z,11.40
2018-10-15T06:22:51.209Z,11.30
2018-10-15T06:25:19.605Z,10.70
2018-10-15T06:27:47.733Z,11.08
2018-10-15T06:30:16.889Z,11.03
2018-10-15T06:32:45.178Z,11.85
2018-10-15T06:35:13.429Z,11.05
2018-10-15T06:37:41.678Z,10.32
2018-10-15T06:40:10.273Z,11.08
2018-10-15T06:42:39.448Z,11.08
2018-10-15T06:45:09.807Z,11.73
2018-10-15T06:47:38.484Z,11.33
2018-10-15T06:50:07.151Z,11.95
2018-10-15T06:52:35.470Z,11.45
2018-10-15T06:55:04.399Z,11.80
2018-10-15T06:57:32.431Z,11.15
2018-10-15T07:00:00.747Z,11.83
2018-10-15T07:02:29.269Z,11.22
2018-10-15T07:04:57.614Z,11.05
2018-10-15T07:07:26.893Z,10.70
2018-10-15T07:09:55.100Z,10.93
2018-10-15T07:12:23.252Z,11.70
2018-10-15T07:14:51.601Z,11.90
2018-10-15T07:17:20.028Z,11.03
2018-10-15T07:19:48.103Z,10.95
2018-10-15T07:22:16.235Z,11.70
2018-10-15T07:24:44.546Z,11.88
2018-10-15T07:27:19.160Z,11.60
2018-10-15T07:29:47.422Z,11.48
2018-10-15T07:32:15.780Z,11.90
2018-10-15T07:34:43.746Z,11.50
2018-10-15T07:37:12.088Z,11.83
2018-10-15T07:39:40.407Z,11.28
2018-10-15T07:42:08.762Z,11.73
2018-10-15T07:44:37.230Z,11.25
2018-10-15T07:47:06.298Z,12.03
2018-10-15T07:49:34.600Z,11.25
2018-10-15T07:52:02.952Z,13.15
2018-10-15T07:54:31.214Z,11.63
2018-10-15T07:56:59.516Z,11.33
2018-10-15T07:59:27.843Z,11.57
2018-10-15T08:01:56.143Z,11.80
2018-10-15T08:04:24.519Z,13.30
2018-10-15T08:06:52.460Z,13.05
2018-10-15T08:09:20.734Z,12.60
2018-10-15T08:11:49.902Z,12.00
2018-10-15T08:14:18.236Z,11.80
2018-10-15T08:16:46.459Z,11.73
2018-10-15T08:19:14.463Z,11.70
2018-10-15T08:21:42.703Z,11.87
2018-10-15T08:24:10.741Z,12.53
2018-10-15T08:26:39.041Z,11.80
2018-10-15T08:29:07.374Z,10.73
2018-10-15T08:31:35.826Z,11.07
2018-10-15T08:34:03.818Z,10.53
2018-10-15T08:36:32.088Z,10.57
2018-10-15T08:39:00.091Z,9.90
2018-10-15T08:41:29.241Z,10.70
2018-10-15T08:43:57.474Z,9.93
2018-10-15T08:46:25.763Z,10.23
2018-10-15T08:48:54.149Z,10.40
2018-10-15T08:51:22.643Z,10.33
2018-10-15T08:53:51.315Z,9.40
2018-10-15T08:56:19.944Z,9.23
2018-10-15T08:58:48.219Z,9.17
2018-10-15T09:01:16.554Z,9.27
2018-10-15T09:03:44.807Z,9.40
2018-10-15T09:06:12.869Z,10.33
2018-10-15T09:08:41.344Z,9.40
2018-10-15T09:11:09.478Z,8.70
2018-10-15T09:13:37.847Z,9.17
2018-10-15T09:16:06.194Z,8.93
2018-10-15T09:18:34.517Z,9.37
2018-10-15T09:21:02.867Z,9.40
2018-10-15T09:23:31.126Z,9.40
2018-10-15T09:25:59.427Z,9.33
2018-10-15T09:28:27.790Z,9.70
2018-10-15T09:30:56.066Z,8.63
2018-10-15T09:33:24.342Z,9.50
2018-10-15T09:35:52.297Z,9.50
2018-10-15T09:38:20.624Z,8.87
2018-10-15T09:40:48.887Z,9.60
2018-10-15T09:43:17.146Z,8.77
2018-10-15T09:45:45.509Z,8.77
2018-10-15T09:48:13.512Z,9.07
2018-10-15T09:50:42.118Z,10.10
2018-10-15T09:53:10.309Z,8.17
2018-10-15T09:55:38.382Z,7.33
2018-10-15T09:58:06.761Z,8.33
2018-10-15T10:00:40.272Z,7.97
2018-10-15T10:03:08.622Z,8.03
2018-10-15T10:05:36.927Z,7.43
2018-10-15T10:08:05.105Z,7.40
2018-10-15T10:10:33.072Z,7.20
2018-10-15T10:13:01.626Z,7.27
2018-10-15T10:15:29.831Z,8.07
2018-10-15T10:17:58.521Z,7.43
2018-10-15T10:20:26.600Z,7.67
2018-10-15T10:22:54.743Z,7.33
2018-10-15T10:25:22.918Z,6.97
2018-10-15T10:27:51.170Z,7.00
2018-10-15T10:30:19.965Z,7.57
2018-10-15T10:32:47.972Z,6.97
2018-10-15T10:35:49.041Z,7.70
2018-10-15T10:38:18.521Z,7.10
2018-10-15T10:40:46.842Z,8.00
2018-10-15T10:43:15.060Z,7.07
2018-10-15T10:45:43.428Z,6.73
2018-10-15T10:48:11.421Z,8.30
2018-10-15T10:50:39.790Z,7.70
2018-10-15T10:53:08.573Z,8.10
2018-10-15T10:55:36.851Z,7.57
2018-10-15T10:58:05.574Z,7.47
2018-10-15T11:00:33.832Z,7.10
2018-10-15T11:03:02.335Z,8.40
2018-10-15T11:05:30.743Z,8.00
2018-10-15T11:07:59.143Z,8.43
2018-10-15T11:10:27.678Z,8.37
2018-10-15T11:12:56.282Z,9.00
2018-10-15T11:15:24.601Z,8.40
2018-10-15T11:17:52.611Z,8.47
2018-10-15T11:20:21.174Z,7.70
2018-10-15T11:22:49.329Z,7.50
2018-10-15T11:25:17.639Z,8.57
2018-10-15T11:27:45.868Z,8.30
2018-10-15T11:30:14.200Z,7.90
2018-10-15T11:32:42.559Z,7.97
2018-10-15T11:35:10.931Z,8.20
2018-10-15T11:37:39.245Z,8.23
2018-10-15T11:40:07.488Z,11.23
2018-10-15T11:42:35.758Z,10.90
2018-10-15T11:45:04.026Z,10.27
2018-10-15T11:47:32.326Z,8.13
2018-10-15T11:50:00.704Z,9.40
2018-10-15T11:52:28.957Z,9.30
2018-10-15T11:54:57.302Z,9.43
2018-10-15T11:57:25.602Z,9.30
2018-10-15T11:59:53.910Z,9.63
2018-10-15T12:02:22.213Z,9.27
2018-10-15T12:04:50.422Z,8.00
2018-10-15T12:07:18.655Z,8.73
2018-10-15T12:09:46.906Z,8.90
2018-10-15T12:12:15.123Z,9.50
2018-10-15T12:14:43.389Z,8.80
2018-10-15T12:17:11.429Z,8.57
2018-10-15T12:19:39.875Z,8.30
2018-10-15T12:22:08.210Z,8.60
2018-10-15T12:24:36.179Z,8.70
2018-10-15T12:27:04.461Z,8.23
2018-10-15T12:29:32.881Z,8.50
2018-10-15T12:32:01.149Z,7.93
2018-10-15T12:34:29.384Z,8.67
2018-10-15T12:36:57.618Z,8.10
2018-10-15T12:39:25.850Z,8.13
2018-10-15T12:41:53.817Z,7.90
2018-10-15T12:44:22.795Z,8.97
2018-10-15T12:46:51.015Z,8.23
2018-10-15T12:49:19.005Z,7.90
2018-10-15T12:51:47.212Z,7.63
2018-10-15T12:54:15.430Z,7.77
2018-10-15T12:56:45.145Z,8.00
2018-10-15T12:59:13.472Z,6.57
2018-10-15T13:01:41.759Z,7.93
2018-10-15T13:04:10.101Z,7.40
2018-10-15T13:06:38.418Z,7.30
2018-10-15T13:09:08.800Z,8.17
2018-10-15T13:11:37.578Z,8.67
2018-10-15T13:14:06.353Z,8.80
2018-10-15T13:16:34.600Z,8.70
2018-10-15T13:19:03.771Z,8.50
2018-10-15T13:21:32.386Z,8.47
2018-10-15T13:24:00.764Z,8.67
2018-10-15T13:26:28.836Z,8.67
2018-10-15T13:28:56.789Z,8.70
2018-10-15T13:31:25.079Z,8.63
2018-10-15T13:33:53.336Z,8.70
2018-10-15T13:36:21.613Z,9.00
2018-10-15T13:38:49.865Z,8.77
2018-10-15T13:41:18.098Z,9.00
2018-10-15T13:43:46.213Z,8.93
2018-10-15T13:46:14.544Z,8.60
2018-10-15T13:48:42.946Z,8.27
2018-10-15T13:51:10.941Z,8.83
2018-10-15T13:53:39.286Z,7.43
2018-10-15T13:56:07.534Z,8.63
2018-10-15T13:58:35.896Z,9.77
2018-10-15T14:01:04.262Z,8.67
2018-10-15T14:03:32.557Z,7.70
2018-10-15T14:06:00.801Z,8.77
2018-10-15T14:08:29.091Z,8.60
2018-10-15T14:10:57.470Z,8.33
2018-10-15T14:13:25.948Z,8.10
2018-10-15T14:15:53.934Z,8.47
2018-10-15T14:18:22.225Z,7.87
2018-10-15T14:20:50.625Z,8.83
2018-10-15T14:23:19.138Z,8.30
2018-10-15T14:25:47.392Z,8.57
2018-10-15T14:28:15.831Z,8.50
2018-10-15T14:30:43.881Z,8.50
2018-10-15T14:33:12.181Z,8.77
2018-10-15T14:35:40.528Z,9.50
2018-10-15T14:38:08.867Z,8.50
2018-10-15T14:40:37.187Z,8.73
2018-10-15T14:43:06.004Z,9.50
2018-10-15T14:45:34.361Z,15.43
2018-10-15T14:48:02.778Z,15.00
2018-10-15T14:50:31.118Z,12.90
2018-10-15T14:52:59.482Z,11.63
2018-10-15T14:55:27.906Z,11.00
2018-10-15T14:57:56.260Z,10.07
2018-10-15T15:00:24.570Z,9.90
2018-10-15T15:02:52.718Z,10.37
2018-10-15T15:05:20.913Z,10.43
2018-10-15T15:07:49.301Z,10.37
2018-10-15T15:10:28.897Z,10.20
2018-10-15T15:13:08.652Z,9.53
2018-10-15T15:15:36.662Z,10.20
2018-10-15T15:18:05.289Z,10.57
2018-10-15T15:20:33.533Z,10.13
2018-10-15T15:23:01.812Z,10.20
2018-10-15T15:25:30.090Z,9.23
2018-10-15T15:27:58.203Z,10.97
2018-10-15T15:30:26.404Z,11.13
2018-10-15T15:32:56.263Z,10.13
2018-10-15T15:35:24.482Z,10.97
2018-10-15T15:37:52.774Z,11.67
2018-10-15T15:40:20.841Z,10.33
2018-10-15T15:42:49.213Z,10.73
2018-10-15T15:45:17.556Z,11.47
2018-10-15T15:47:45.585Z,11.27
2018-10-15T15:50:14.031Z,11.47
2018-10-15T15:52:42.363Z,11.77
2018-10-15T15:55:10.969Z,11.00
2018-10-15T15:57:39.474Z,11.27
2018-10-15T16:00:09.826Z,11.50
2018-10-15T16:02:38.850Z,11.57
2018-10-15T16:05:07.633Z,11.77
2018-10-15T16:07:35.989Z,11.30
2018-10-15T16:10:04.471Z,11.67
2018-10-15T16:12:32.834Z,10.23
2018-10-15T16:15:01.168Z,11.70
2018-10-15T16:17:29.530Z,10.53
2018-10-15T16:19:57.827Z,11.23
2018-10-15T16:22:26.058Z,10.60
2018-10-15T16:24:54.317Z,10.97
2018-10-15T16:27:22.626Z,11.37
2018-10-15T16:29:50.931Z,10.47
2018-10-15T16:32:19.165Z,9.33
2018-10-15T16:34:47.413Z,10.33
2018-10-15T16:37:15.619Z,9.20
2018-10-15T16:39:43.877Z,9.50
2018-10-15T16:42:12.142Z,9.90
2018-10-15T16:44:40.413Z,8.87
2018-10-15T16:47:09.572Z,8.40
2018-10-15T16:49:37.821Z,7.70
2018-10-15T16:52:06.131Z,7.73
2018-10-15T16:54:34.550Z,8.27
2018-10-15T16:57:02.829Z,8.10
2018-10-15T16:59:31.096Z,8.27
2018-10-15T17:01:59.439Z,7.83
2018-10-15T17:04:27.686Z,8.30
2018-10-15T17:06:55.928Z,7.23
2018-10-15T17:09:24.466Z,7.33
2018-10-15T17:11:52.836Z,8.80
2018-10-15T17:14:21.075Z,7.93
2018-10-15T17:16:49.440Z,8.60
2018-10-15T17:19:17.954Z,9.00
2018-10-15T17:21:46.301Z,8.70
2018-10-15T17:24:14.697Z,9.10
2018-10-15T17:26:43.002Z,9.10
2018-10-15T17:29:11.379Z,9.50
2018-10-15T17:31:39.718Z,9.60
2018-10-15T17:34:08.136Z,9.07
2018-10-15T17:36:36.496Z,8.37
2018-10-15T17:39:08.626Z,9.40
2018-10-15T17:41:37.419Z,9.30
2018-10-15T17:44:06.722Z,10.00
2018-10-15T17:46:35.071Z,9.37
2018-10-15T17:49:03.625Z,9.23
2018-10-15T17:51:32.024Z,9.00
2018-10-15T17:54:00.287Z,9.93
2018-10-15T17:56:28.607Z,9.23
2018-10-15T17:58:56.993Z,10.00
2018-10-15T18:01:25.294Z,9.70
2018-10-15T18:03:53.665Z,10.40
2018-10-15T18:06:21.939Z,10.00
2018-10-15T18:08:50.280Z,10.00
2018-10-15T18:11:18.647Z,10.13
2018-10-15T18:13:47.124Z,9.80
2018-10-15T18:16:15.614Z,9.90
2018-10-15T18:18:43.959Z,9.93
2018-10-15T18:21:12.483Z,10.30
2018-10-15T18:23:40.834Z,10.90
2018-10-15T18:26:09.205Z,10.47
2018-10-15T18:28:44.243Z,11.07
2018-10-15T18:31:12.563Z,10.60
2018-10-15T18:33:40.859Z,11.00
2018-10-15T18:36:09.257Z,11.47
2018-10-15T18:38:37.563Z,11.97
2018-10-15T18:41:06.282Z,12.30
2018-10-15T18:43:34.651Z,13.23
2018-10-15T18:46:03.115Z,14.93
2018-10-15T18:48:31.394Z,14.07
2018-10-15T18:50:59.717Z,13.87
2018-10-15T18:53:28.051Z,14.90
2018-10-15T18:55:56.331Z,14.33
2018-10-15T18:58:24.627Z,13.70
2018-10-15T19:00:52.902Z,15.00
2018-10-15T19:03:21.151Z,14.03
2018-10-15T19:05:50.135Z,16.20
2018-10-15T19:08:18.411Z,15.00
2018-10-15T19:10:46.693Z,14.97
2018-10-15T19:13:15.003Z,14.77
2018-10-15T19:15:43.337Z,16.57
2018-10-15T19:18:11.610Z,16.47
2018-10-15T19:20:39.940Z,16.70
2018-10-15T19:23:08.189Z,17.00
2018-10-15T19:25:36.566Z,16.70
2018-10-15T19:28:04.991Z,16.33
2018-10-15T19:30:33.261Z,16.33
2018-10-15T19:33:01.567Z,17.20
2018-10-15T19:35:29.876Z,17.03
2018-10-15T19:37:58.160Z,15.73
2018-10-15T19:40:26.575Z,17.23
2018-10-15T19:42:54.975Z,16.37
2018-10-15T19:45:23.246Z,16.50
2018-10-15T19:47:51.535Z,16.80
2018-10-15T19:50:19.869Z,16.30
2018-10-15T19:52:48.240Z,17.90
2018-10-15T19:55:16.650Z,18.83
2018-10-15T19:57:44.827Z,18.00
2018-10-15T20:00:15.727Z,17.33
2018-10-15T20:02:45.178Z,17.63
2018-10-15T20:05:13.516Z,18.13
2018-10-15T20:07:41.859Z,18.40
2018-10-15T20:10:12.758Z,18.50
2018-10-15T20:12:41.539Z,17.97
2018-10-15T20:15:10.310Z,17.87
2018-10-15T20:17:39.247Z,18.80
2018-10-15T20:20:08.031Z,19.40
2018-10-15T20:22:36.278Z,17.30
2018-10-15T20:25:04.705Z,20.00
2018-10-15T20:27:33.041Z,18.87
2018-10-15T20:30:01.521Z,18.00
2018-10-15T20:32:29.926Z,18.53
2018-10-15T20:34:58.475Z,19.07
2018-10-15T20:37:26.737Z,19.20
2018-10-15T20:39:55.114Z,19.87
2018-10-15T20:42:23.428Z,19.80
2018-10-15T20:44:51.388Z,19.23
2018-10-15T20:47:19.431Z,19.47
2018-10-15T20:49:47.422Z,19.90
2018-10-15T20:52:15.682Z,20.43
2018-10-15T20:54:43.919Z,20.37
2018-10-15T20:57:12.206Z,20.00
2018-10-15T20:59:40.562Z,19.90
2018-10-15T21:02:08.525Z,19.43
2018-10-15T21:04:36.810Z,20.50
2018-10-15T21:07:05.330Z,20.87
2018-10-15T21:09:33.590Z,20.53
2018-10-15T21:12:02.070Z,21.90
2018-10-15T21:14:30.321Z,21.33
2018-10-15T21:16:58.316Z,22.10
2018-10-15T21:19:26.650Z,20.93
2018-10-15T21:21:54.698Z,20.37
2018-10-15T21:24:23.066Z,20.77
2018-10-15T21:26:51.341Z,21.00
2018-10-15T21:29:19.594Z,20.50
2018-10-15T21:31:47.913Z,21.73
2018-10-15T21:34:16.226Z,19.90
2018-10-15T21:36:44.533Z,19.70
2018-10-15T21:39:12.914Z,19.27
2018-10-15T21:41:41.169Z,21.40
2018-10-15T21:44:09.277Z,21.33
2018-10-15T21:46:37.591Z,21.00
2018-10-15T21:49:05.977Z,19.47
2018-10-15T21:51:33.976Z,19.73
2018-10-15T21:54:02.231Z,20.20
2018-10-15T21:56:30.501Z,19.37
2018-10-15T21:58:58.785Z,19.90
2018-10-15T22:01:26.832Z,18.00
2018-10-15T22:03:55.090Z,19.83
2018-10-15T22:06:23.514Z,19.97
2018-10-15T22:08:51.373Z,19.30
2018-10-15T22:11:20.354Z,19.90
2018-10-15T22:13:48.681Z,19.00
2018-10-15T22:16:16.657Z,18.70
2018-10-15T22:18:44.897Z,19.70
2018-10-15T22:21:12.917Z,19.47
2018-10-15T22:23:41.224Z,18.70
2018-10-15T22:26:09.589Z,20.87
2018-10-15T22:28:37.610Z,20.07
2018-10-15T22:31:05.888Z,19.10
2018-10-15T22:33:34.153Z,19.00
2018-10-15T22:36:02.189Z,17.63
2018-10-15T22:38:30.472Z,17.67
2018-10-15T22:40:58.725Z,18.43
2018-10-15T22:43:27.032Z,17.67
2018-10-15T22:45:55.336Z,18.67
2018-10-15T22:48:23.552Z,18.30
2018-10-15T22:50:51.889Z,18.87
2018-10-15T22:53:26.922Z,18.40
2018-10-15T22:55:55.145Z,17.90
2018-10-15T22:58:23.399Z,17.87
2018-10-15T23:00:51.671Z,20.20
2018-10-15T23:03:19.958Z,18.90
2018-10-15T23:05:48.233Z,19.93
2018-10-15T23:08:16.201Z,19.70
2018-10-15T23:10:44.493Z,20.90
2018-10-15T23:13:12.717Z,21.53
2018-10-15T23:15:40.700Z,20.57
2018-10-15T23:18:09.024Z,22.73
2018-10-15T23:20:37.289Z,24.20
2018-10-15T23:23:05.289Z,22.73
2018-10-15T23:25:33.530Z,21.87
2018-10-15T23:28:01.789Z,23.03
2018-10-15T23:30:30.040Z,23.97
2018-10-15T23:32:58.299Z,21.77
2018-10-15T23:35:26.392Z,21.60
2018-10-15T23:37:54.606Z,22.60
2018-10-15T23:40:22.850Z,22.33
2018-10-15T23:42:51.158Z,21.87
2018-10-15T23:45:19.410Z,23.63
2018-10-15T23:47:47.810Z,22.48
2018-10-15T23:50:16.108Z,21.87
2018-10-15T23:52:44.440Z,20.40
2018-10-15T23:55:13.347Z,22.90
2018-10-15T23:57:41.594Z,22.77
